createdAt,value
2018-05-07T00:01:26.842Z,19.30
2018-05-07T00:03:53.736Z,19.30
2018-05-07T00:06:20.961Z,19.30
2018-05-07T00:08:47.843Z,19.20
2018-05-07T00:11:14.801Z,19.10
2018-05-07T00:13:43.844Z,19.10
2018-05-07T00:16:10.781Z,19.00
2018-05-07T00:18:37.682Z,19.00
2018-05-07T00:21:06.209Z,19.00
2018-05-07T00:23:33.145Z,18.90
2018-05-07T00:26:00.479Z,18.70
2018-05-07T00:28:30.327Z,18.70
2018-05-07T00:30:57.949Z,18.50
2018-05-07T00:33:24.828Z,18.50
2018-05-07T00:35:51.808Z,18.50
2018-05-07T00:38:19.552Z,18.50
2018-05-07T00:40:46.444Z,18.40
2018-05-07T00:43:13.539Z,18.40
2018-05-07T00:45:41.145Z,18.30
2018-05-07T00:48:08.037Z,18.30
2018-05-07T00:50:36.001Z,18.20
2018-05-07T00:53:02.897Z,18.20
2018-05-07T00:55:29.777Z,18.10
2018-05-07T00:57:56.654Z,18.10
2018-05-07T01:00:23.556Z,18.00
2018-05-07T01:02:50.837Z,17.90
2018-05-07T01:05:17.725Z,17.90
2018-05-07T01:07:44.649Z,17.90
2018-05-07T01:10:11.540Z,17.80
2018-05-07T01:12:41.008Z,17.70
2018-05-07T01:15:07.912Z,17.70
2018-05-07T01:17:36.203Z,17.60
2018-05-07T01:20:04.263Z,17.60
2018-05-07T01:22:31.180Z,17.60
2018-05-07T01:24:58.090Z,17.60
2018-05-07T01:27:26.333Z,17.70
2018-05-07T01:29:53.312Z,17.70
2018-05-07T01:32:20.192Z,17.70
2018-05-07T01:34:47.448Z,17.60
2018-05-07T01:37:14.364Z,17.50
2018-05-07T01:39:41.591Z,17.50
2018-05-07T01:42:09.673Z,17.40
2018-05-07T01:44:36.566Z,17.40
2018-05-07T01:47:03.509Z,17.40
2018-05-07T01:49:30.517Z,17.40
2018-05-07T01:51:58.683Z,17.40
2018-05-07T01:54:25.666Z,17.40
2018-05-07T01:56:52.575Z,17.40
2018-05-07T01:59:19.458Z,17.40
2018-05-07T02:01:46.393Z,17.40
2018-05-07T02:04:13.341Z,17.30
2018-05-07T02:06:40.225Z,17.30
2018-05-07T02:09:07.119Z,17.40
2018-05-07T02:11:35.010Z,17.30
2018-05-07T02:14:02.729Z,17.30
2018-05-07T02:16:30.424Z,17.20
2018-05-07T02:18:57.331Z,17.20
2018-05-07T02:21:24.225Z,17.20
2018-05-07T02:23:51.113Z,17.10
2018-05-07T02:26:21.440Z,17.10
2018-05-07T02:28:50.457Z,17.00
2018-05-07T02:31:17.417Z,17.00
2018-05-07T02:33:44.330Z,17.00
2018-05-07T02:36:11.277Z,17.00
2018-05-07T02:38:38.207Z,17.00
2018-05-07T02:41:05.873Z,17.00
2018-05-07T02:43:32.772Z,17.00
2018-05-07T02:45:59.690Z,17.10
2018-05-07T02:48:27.180Z,17.10
2018-05-07T02:50:54.824Z,17.00
2018-05-07T02:53:21.728Z,17.00
2018-05-07T02:55:48.621Z,17.00
2018-05-07T02:58:15.507Z,16.90
2018-05-07T03:00:42.402Z,16.90
2018-05-07T03:03:09.333Z,16.90
2018-05-07T03:05:36.920Z,16.90
2018-05-07T03:08:03.803Z,16.80
2018-05-07T03:10:30.698Z,16.70
2018-05-07T03:12:57.588Z,16.80
2018-05-07T03:15:24.522Z,16.70
2018-05-07T03:17:51.920Z,16.60
2018-05-07T03:20:18.820Z,16.60
2018-05-07T03:22:45.706Z,16.50
2018-05-07T03:25:12.608Z,16.40
2018-05-07T03:27:39.517Z,16.40
2018-05-07T03:30:06.431Z,16.30
2018-05-07T03:32:34.935Z,16.30
2018-05-07T03:35:01.833Z,16.30
2018-05-07T03:37:28.717Z,16.30
2018-05-07T03:39:56.445Z,16.20
2018-05-07T03:42:23.738Z,16.30
2018-05-07T03:44:50.667Z,16.20
2018-05-07T03:47:18.145Z,16.30
2018-05-07T03:49:45.044Z,16.30
2018-05-07T03:52:11.977Z,16.30
2018-05-07T03:54:38.982Z,16.20
2018-05-07T03:57:05.864Z,16.10
2018-05-07T03:59:32.760Z,16.10
2018-05-07T04:01:59.636Z,16.00
2018-05-07T04:04:26.921Z,15.90
2018-05-07T04:06:54.080Z,15.90
2018-05-07T04:09:21.020Z,15.90
2018-05-07T04:11:47.889Z,15.90
2018-05-07T04:14:14.748Z,15.90
2018-05-07T04:16:54.633Z,15.90
2018-05-07T04:19:34.405Z,15.90
2018-05-07T04:22:13.612Z,15.90
2018-05-07T04:24:40.514Z,15.90
2018-05-07T04:27:08.795Z,15.90
2018-05-07T04:29:35.648Z,15.80
2018-05-07T04:32:03.240Z,15.80
2018-05-07T04:34:31.372Z,15.70
2018-05-07T04:36:58.729Z,15.70
2018-05-07T04:39:26.380Z,15.70
2018-05-07T04:41:53.237Z,15.70
2018-05-07T04:44:21.315Z,15.80
2018-05-07T04:46:48.917Z,15.80
2018-05-07T04:49:15.779Z,15.80
2018-05-07T04:51:42.723Z,15.80
2018-05-07T04:54:09.577Z,15.70
2018-05-07T04:56:36.461Z,15.70
2018-05-07T04:59:04.920Z,15.70
2018-05-07T05:01:32.576Z,15.70
2018-05-07T05:03:59.473Z,15.70
2018-05-07T05:06:27.472Z,15.70
2018-05-07T05:08:54.362Z,15.80
2018-05-07T05:11:21.220Z,15.80
2018-05-07T05:13:48.624Z,15.80
2018-05-07T05:16:15.912Z,15.90
2018-05-07T05:18:42.764Z,15.90
2018-05-07T05:21:09.787Z,15.90
2018-05-07T05:23:36.569Z,15.90
2018-05-07T05:26:03.525Z,16.00
2018-05-07T05:28:31.136Z,16.10
2018-05-07T05:30:58.723Z,16.30
2018-05-07T05:33:25.897Z,16.30
2018-05-07T05:35:54.859Z,16.40
2018-05-07T05:38:21.721Z,16.50
2018-05-07T05:40:48.600Z,16.50
2018-05-07T05:43:16.596Z,16.60
2018-05-07T05:45:44.965Z,16.60
2018-05-07T05:48:12.560Z,16.70
2018-05-07T05:50:39.417Z,16.70
2018-05-07T05:53:06.608Z,16.80
2018-05-07T05:55:33.484Z,16.90
2018-05-07T05:58:00.444Z,17.00
2018-05-07T06:00:27.308Z,17.20
2018-05-07T06:02:54.169Z,17.40
2018-05-07T06:05:21.836Z,17.50
2018-05-07T06:07:48.694Z,17.70
2018-05-07T06:10:16.383Z,18.20
2018-05-07T06:12:45.188Z,18.20
2018-05-07T06:15:12.096Z,18.50
2018-05-07T06:17:40.618Z,19.10
2018-05-07T06:20:07.492Z,19.20
2018-05-07T06:22:35.705Z,19.40
2018-05-07T06:25:03.313Z,20.00
2018-05-07T06:27:30.175Z,19.90
2018-05-07T06:29:57.861Z,20.30
2018-05-07T06:32:25.465Z,20.80
2018-05-07T06:34:52.776Z,20.80
2018-05-07T06:37:19.759Z,21.10
2018-05-07T06:39:46.628Z,21.50
2018-05-07T06:42:15.772Z,21.90
2018-05-07T06:44:43.386Z,22.20
2018-05-07T06:47:11.892Z,22.10
2018-05-07T06:49:38.849Z,22.40
2018-05-07T06:52:05.813Z,22.60
2018-05-07T06:54:33.815Z,23.00
2018-05-07T06:57:00.684Z,23.00
2018-05-07T06:59:27.603Z,23.20
2018-05-07T07:01:56.135Z,23.30
2018-05-07T07:04:23.738Z,23.70
2018-05-07T07:06:50.711Z,23.70
2018-05-07T07:09:17.626Z,23.90
2018-05-07T07:11:44.525Z,24.20
2018-05-07T07:14:11.395Z,24.40
2018-05-07T07:16:38.301Z,24.60
2018-05-07T07:19:07.549Z,24.70
2018-05-07T07:21:34.790Z,24.90
2018-05-07T07:24:02.058Z,25.00
2018-05-07T07:26:30.702Z,25.20
2018-05-07T07:28:58.592Z,25.40
2018-05-07T07:31:25.574Z,25.40
2018-05-07T07:33:52.499Z,25.40
2018-05-07T07:36:22.272Z,25.60
2018-05-07T07:38:50.829Z,25.00
2018-05-07T07:41:17.740Z,25.00
2018-05-07T07:43:46.148Z,24.70
2018-05-07T07:46:13.076Z,24.50
2018-05-07T07:48:40.413Z,24.20
2018-05-07T07:51:07.296Z,24.00
2018-05-07T07:53:34.287Z,24.00
2018-05-07T07:56:02.780Z,24.40
2018-05-07T07:58:29.700Z,24.40
2018-05-07T08:00:57.352Z,24.40
2018-05-07T08:03:26.275Z,24.50
2018-05-07T08:05:53.168Z,24.50
2018-05-07T08:08:20.071Z,24.50
2018-05-07T08:10:47.397Z,24.50
2018-05-07T08:13:14.341Z,24.70
2018-05-07T08:15:41.357Z,24.70
2018-05-07T08:18:09.232Z,24.70
2018-05-07T08:20:36.471Z,24.60
2018-05-07T08:23:03.453Z,24.60
2018-05-07T08:25:31.172Z,24.70
2018-05-07T08:27:58.065Z,24.70
2018-05-07T08:30:25.008Z,24.70
2018-05-07T08:32:52.189Z,24.80
2018-05-07T08:35:19.120Z,24.90
2018-05-07T08:37:47.926Z,24.90
2018-05-07T08:40:28.104Z,24.90
2018-05-07T08:43:02.026Z,25.00
2018-05-07T08:45:36.268Z,25.00
2018-05-07T08:48:12.156Z,25.00
2018-05-07T08:50:46.140Z,25.10
2018-05-07T08:53:14.032Z,25.20
2018-05-07T08:55:42.709Z,25.20
2018-05-07T08:58:10.802Z,25.20
2018-05-07T09:00:38.624Z,25.20
2018-05-07T09:03:06.290Z,25.20
2018-05-07T09:05:35.736Z,25.20
2018-05-07T09:08:02.685Z,25.40
2018-05-07T09:10:29.620Z,25.60
2018-05-07T09:12:56.893Z,25.70
2018-05-07T09:15:23.792Z,25.80
2018-05-07T09:17:51.037Z,25.90
2018-05-07T09:20:18.025Z,26.00
2018-05-07T09:22:45.376Z,26.20
2018-05-07T09:25:12.288Z,26.30
2018-05-07T09:27:39.744Z,26.60
2018-05-07T09:30:07.392Z,26.60
2018-05-07T09:32:34.260Z,26.70
2018-05-07T09:35:01.194Z,26.80
2018-05-07T09:37:28.107Z,26.90
2018-05-07T09:39:56.640Z,26.90
2018-05-07T09:42:24.741Z,26.90
2018-05-07T09:44:51.651Z,27.00
2018-05-07T09:47:18.567Z,27.00
2018-05-07T09:49:45.901Z,27.30
2018-05-07T09:52:12.800Z,27.30
2018-05-07T09:54:40.729Z,27.40
2018-05-07T09:57:08.518Z,27.60
2018-05-07T09:59:37.416Z,27.60
2018-05-07T10:02:05.048Z,28.00
2018-05-07T10:04:32.376Z,27.90
2018-05-07T10:07:00.437Z,27.80
2018-05-07T10:09:27.612Z,27.80
2018-05-07T10:11:56.329Z,27.80
2018-05-07T10:14:23.217Z,28.00
2018-05-07T10:16:50.077Z,28.00
2018-05-07T10:19:17.443Z,28.10
2018-05-07T10:21:45.069Z,28.40
2018-05-07T10:24:12.872Z,28.40
2018-05-07T10:26:39.776Z,28.50
2018-05-07T10:29:06.659Z,28.50
2018-05-07T10:31:33.588Z,28.40
2018-05-07T10:34:00.853Z,28.30
2018-05-07T10:36:29.308Z,28.30
2018-05-07T10:38:56.188Z,28.50
2018-05-07T10:41:25.425Z,28.40
2018-05-07T10:43:53.544Z,28.50
2018-05-07T10:46:21.257Z,28.60
2018-05-07T10:48:48.776Z,28.70
2018-05-07T10:51:19.996Z,28.70
2018-05-07T10:53:46.888Z,28.90
2018-05-07T10:56:14.050Z,28.90
2018-05-07T10:58:40.985Z,29.00
2018-05-07T11:01:07.889Z,29.00
2018-05-07T11:03:35.576Z,29.10
2018-05-07T11:06:02.459Z,29.10
2018-05-07T11:08:31.121Z,29.20
2018-05-07T11:10:58.942Z,29.20
2018-05-07T11:13:26.615Z,29.20
2018-05-07T11:15:54.241Z,29.20
2018-05-07T11:18:21.651Z,29.20
2018-05-07T11:20:49.739Z,29.30
2018-05-07T11:23:16.613Z,29.30
2018-05-07T11:25:44.653Z,29.30
2018-05-07T11:28:11.523Z,29.30
2018-05-07T11:30:38.405Z,29.20
2018-05-07T11:33:08.814Z,29.30
2018-05-07T11:35:43.494Z,29.30
2018-05-07T11:38:10.708Z,29.20
2018-05-07T11:40:37.600Z,29.30
2018-05-07T11:43:04.482Z,29.40
2018-05-07T11:45:32.524Z,29.50
2018-05-07T11:47:59.416Z,29.50
2018-05-07T11:50:26.572Z,29.40
2018-05-07T11:52:53.757Z,29.50
2018-05-07T11:55:20.635Z,29.40
2018-05-07T11:57:47.704Z,29.40
2018-05-07T12:00:15.541Z,29.30
2018-05-07T12:02:43.491Z,29.40
2018-05-07T12:05:10.396Z,29.40
2018-05-07T12:07:37.289Z,29.40
2018-05-07T12:10:05.414Z,29.50
2018-05-07T12:12:32.333Z,29.50
2018-05-07T12:15:00.592Z,29.50
2018-05-07T12:20:14.829Z,29.50
2018-05-07T12:22:41.711Z,29.40
2018-05-07T12:25:09.109Z,29.40
2018-05-07T12:27:35.985Z,29.30
2018-05-07T12:30:02.884Z,29.30
2018-05-07T12:32:29.898Z,29.40
2018-05-07T12:34:57.497Z,29.30
2018-05-07T12:37:24.395Z,29.30
2018-05-07T12:39:51.265Z,29.40
2018-05-07T12:42:18.233Z,29.50
2018-05-07T12:44:52.959Z,29.60
2018-05-07T12:47:20.266Z,29.60
2018-05-07T12:49:47.921Z,29.50
2018-05-07T12:52:14.783Z,29.50
2018-05-07T12:54:43.717Z,29.50
2018-05-07T12:57:10.685Z,29.50
2018-05-07T12:59:37.579Z,29.50
2018-05-07T13:02:04.502Z,29.50
2018-05-07T13:04:32.346Z,29.50
2018-05-07T13:06:59.220Z,29.50
2018-05-07T13:09:28.110Z,29.60
2018-05-07T13:11:55.776Z,29.50
2018-05-07T13:14:25.318Z,29.50
2018-05-07T13:16:52.590Z,29.40
2018-05-07T13:19:19.490Z,29.40
2018-05-07T13:21:47.004Z,29.40
2018-05-07T13:24:15.232Z,29.40
2018-05-07T13:26:42.144Z,29.40
2018-05-07T13:29:09.767Z,29.20
2018-05-07T13:31:37.555Z,29.20
2018-05-07T13:34:04.476Z,29.30
2018-05-07T13:36:31.345Z,29.20
2018-05-07T13:38:59.058Z,29.10
2018-05-07T13:41:25.932Z,28.90
2018-05-07T13:43:52.788Z,28.80
2018-05-07T13:46:24.506Z,28.80
2018-05-07T13:48:52.923Z,28.80
2018-05-07T13:51:20.763Z,28.70
2018-05-07T13:53:48.769Z,28.50
2018-05-07T13:56:18.621Z,28.10
2018-05-07T13:58:46.325Z,28.00
2018-05-07T14:01:13.267Z,27.70
2018-05-07T14:03:40.197Z,27.60
2018-05-07T14:06:07.068Z,27.30
2018-05-07T14:08:33.966Z,27.10
2018-05-07T14:11:00.968Z,26.80
2018-05-07T14:13:27.856Z,26.60
2018-05-07T14:15:57.019Z,26.40
2018-05-07T14:18:24.667Z,26.20
2018-05-07T14:20:52.283Z,25.90
2018-05-07T14:23:20.864Z,25.90
2018-05-07T14:25:48.490Z,25.90
2018-05-07T14:28:17.268Z,25.70
2018-05-07T14:30:45.561Z,25.70
2018-05-07T14:33:13.528Z,25.50
2018-05-07T14:35:44.947Z,25.50
2018-05-07T14:38:17.529Z,25.40
2018-05-07T14:40:45.656Z,25.20
2018-05-07T14:43:12.542Z,25.00
2018-05-07T14:45:40.365Z,24.90
2018-05-07T14:48:08.980Z,24.70
2018-05-07T14:50:37.413Z,24.40
2018-05-07T14:53:06.137Z,24.30
2018-05-07T14:55:33.728Z,24.20
2018-05-07T14:58:02.520Z,24.20
2018-05-07T15:00:31.449Z,24.20
2018-05-07T15:03:00.457Z,24.20
2018-05-07T15:05:29.859Z,24.10
2018-05-07T15:08:00.328Z,24.10
2018-05-07T15:10:28.757Z,24.10
2018-05-07T15:12:57.862Z,24.00
2018-05-07T15:15:28.976Z,24.00
2018-05-07T15:17:59.096Z,24.00
2018-05-07T15:20:27.044Z,23.70
2018-05-07T15:22:58.924Z,23.60
2018-05-07T15:25:27.786Z,23.60
2018-05-07T15:27:57.283Z,23.50
2018-05-07T15:30:27.594Z,23.50
2018-05-07T15:32:54.473Z,23.50
2018-05-07T15:35:22.920Z,23.30
2018-05-07T15:37:52.686Z,23.30
2018-05-07T15:40:19.573Z,23.30
2018-05-07T15:42:46.477Z,23.20
2018-05-07T15:45:13.365Z,23.10
2018-05-07T15:47:40.233Z,23.00
2018-05-07T15:50:08.556Z,22.70
2018-05-07T15:52:35.965Z,22.70
2018-05-07T15:55:04.658Z,22.20
2018-05-07T15:57:32.278Z,21.90
2018-05-07T16:00:02.513Z,21.70
2018-05-07T16:02:30.779Z,21.80
2018-05-07T16:04:58.232Z,21.70
2018-05-07T16:07:28.157Z,21.70
2018-05-07T16:09:55.661Z,21.70
2018-05-07T16:12:24.016Z,21.70
2018-05-07T16:14:52.097Z,21.60
2018-05-07T16:17:22.682Z,21.50
2018-05-07T16:19:52.569Z,21.40
2018-05-07T16:22:20.237Z,21.50
2018-05-07T16:27:23.755Z,21.50
2018-05-07T16:29:50.636Z,21.50
2018-05-07T16:32:17.508Z,21.50
2018-05-07T16:34:45.176Z,21.60
2018-05-07T16:37:12.356Z,21.60
2018-05-07T16:39:40.521Z,21.70
2018-05-07T16:42:08.902Z,21.60
2018-05-07T16:44:35.813Z,21.60
2018-05-07T16:47:03.428Z,21.50
2018-05-07T16:49:34.822Z,21.50
2018-05-07T16:52:02.780Z,21.50
2018-05-07T16:54:30.352Z,21.50
2018-05-07T16:56:58.500Z,21.40
2018-05-07T16:59:25.422Z,21.40
2018-05-07T17:01:52.309Z,21.40
2018-05-07T17:04:20.590Z,21.50
2018-05-07T17:06:48.383Z,21.50
2018-05-07T17:09:16.028Z,21.50
2018-05-07T17:11:48.780Z,21.50
2018-05-07T17:14:16.933Z,21.50
2018-05-07T17:16:46.450Z,21.50
2018-05-07T17:19:13.641Z,21.40
2018-05-07T17:21:40.533Z,21.40
2018-05-07T17:24:07.400Z,21.30
2018-05-07T17:26:35.674Z,21.30
2018-05-07T17:29:04.647Z,21.40
2018-05-07T17:31:32.352Z,21.30
2018-05-07T17:34:00.005Z,21.30
2018-05-07T17:36:26.845Z,21.30
2018-05-07T17:38:55.178Z,21.30
2018-05-07T17:41:23.782Z,21.30
2018-05-07T17:43:50.764Z,21.30
2018-05-07T17:49:14.285Z,21.30
2018-05-07T17:51:43.940Z,21.30
2018-05-07T17:54:10.966Z,21.30
2018-05-07T17:56:39.404Z,21.30
2018-05-07T17:59:07.007Z,21.30
2018-05-07T18:01:35.272Z,21.40
2018-05-07T18:04:04.434Z,21.40
2018-05-07T18:06:31.833Z,21.50
2018-05-07T18:09:02.304Z,21.50
2018-05-07T18:11:30.341Z,21.60
2018-05-07T18:13:57.296Z,21.60
2018-05-07T18:16:25.752Z,21.50
2018-05-07T18:18:52.636Z,21.50
2018-05-07T18:21:21.493Z,21.50
2018-05-07T18:23:49.387Z,21.50
2018-05-07T18:26:17.142Z,21.40
2018-05-07T18:28:47.288Z,21.40
2018-05-07T18:31:14.187Z,21.40
2018-05-07T18:33:41.077Z,21.30
2018-05-07T18:36:09.038Z,21.20
2018-05-07T18:38:36.415Z,21.10
2018-05-07T18:41:04.211Z,21.10
2018-05-07T18:43:33.223Z,21.00
2018-05-07T18:46:00.096Z,20.90
2018-05-07T18:48:27.552Z,20.80
2018-05-07T18:50:54.972Z,20.80
2018-05-07T18:53:29.485Z,20.60
2018-05-07T18:55:57.293Z,20.60
2018-05-07T18:58:25.916Z,20.40
2018-05-07T19:00:58.998Z,20.30
2018-05-07T19:03:25.899Z,20.20
2018-05-07T19:05:52.790Z,20.20
2018-05-07T19:11:02.880Z,20.00
2018-05-07T19:16:02.417Z,19.70
2018-05-07T19:18:31.564Z,19.70
2018-05-07T19:20:58.446Z,19.70
2018-05-07T19:23:25.329Z,19.70
2018-05-07T19:25:52.452Z,19.60
2018-05-07T19:28:20.578Z,19.40
2018-05-07T19:30:47.454Z,19.40
2018-05-07T19:33:14.472Z,19.30
2018-05-07T19:35:41.344Z,19.20
2018-05-07T19:38:08.335Z,19.20
2018-05-07T19:40:35.237Z,19.10
2018-05-07T19:43:02.164Z,19.10
2018-05-07T19:45:29.289Z,19.00
2018-05-07T19:47:56.321Z,18.90
2018-05-07T19:50:24.549Z,18.80
2018-05-07T19:52:52.708Z,18.80
2018-05-07T19:55:19.816Z,18.90
2018-05-07T19:57:46.725Z,18.80
2018-05-07T20:00:20.015Z,18.70
2018-05-07T20:02:46.953Z,18.70
2018-05-07T20:05:14.761Z,18.60
2018-05-07T20:07:41.663Z,18.60
2018-05-07T20:10:12.796Z,18.60
2018-05-07T20:12:43.652Z,18.50
2018-05-07T20:15:12.432Z,18.50
2018-05-07T20:17:39.332Z,18.40
2018-05-07T20:20:06.240Z,18.40
2018-05-07T20:22:33.573Z,18.30
2018-05-07T20:25:00.470Z,18.30
2018-05-07T20:27:28.224Z,18.20
2018-05-07T20:29:55.892Z,18.10
2018-05-07T20:32:22.763Z,18.10
2018-05-07T20:34:49.620Z,18.10
2018-05-07T20:37:16.582Z,18.00
2018-05-07T20:39:44.288Z,18.00
2018-05-07T20:42:11.190Z,18.10
2018-05-07T20:44:38.542Z,18.10
2018-05-07T20:47:05.443Z,18.10
2018-05-07T20:49:32.441Z,18.10
2018-05-07T20:52:00.484Z,18.00
2018-05-07T20:54:27.376Z,18.00
2018-05-07T20:56:54.256Z,18.00
2018-05-07T20:59:21.920Z,17.90
2018-05-07T21:01:48.909Z,17.90
2018-05-07T21:04:15.837Z,17.80
2018-05-07T21:06:44.112Z,17.80
2018-05-07T21:09:10.985Z,17.80
2018-05-07T21:11:37.852Z,17.70
2018-05-07T21:14:04.748Z,17.70
2018-05-07T21:16:32.311Z,17.70
2018-05-07T21:19:00.449Z,17.70
2018-05-07T21:21:27.331Z,17.70
2018-05-07T21:23:56.089Z,17.70
2018-05-07T21:26:22.955Z,17.70
2018-05-07T21:28:50.501Z,17.60
2018-05-07T21:31:17.404Z,17.70
2018-05-07T21:33:44.272Z,17.70
2018-05-07T21:36:11.773Z,17.70
2018-05-07T21:38:38.642Z,17.70
2018-05-07T21:41:05.744Z,17.60
2018-05-07T21:43:34.516Z,17.60
2018-05-07T21:46:01.351Z,17.50
2018-05-07T21:48:28.963Z,17.40
2018-05-07T21:50:57.069Z,17.40
2018-05-07T21:53:24.055Z,17.40
2018-05-07T21:55:51.955Z,17.40
2018-05-07T21:58:19.498Z,17.40
2018-05-07T22:00:47.107Z,17.40
2018-05-07T22:03:15.207Z,17.40
2018-05-07T22:05:43.996Z,17.40
2018-05-07T22:08:10.892Z,17.40
2018-05-07T22:10:37.950Z,17.40
2018-05-07T22:13:04.849Z,17.40
2018-05-07T22:15:32.557Z,17.40
2018-05-07T22:18:01.140Z,17.40
2018-05-07T22:20:29.652Z,17.30
2018-05-07T22:22:56.664Z,17.40
2018-05-07T22:25:23.589Z,17.30
2018-05-07T22:27:50.579Z,17.40
2018-05-07T22:30:17.525Z,17.40
2018-05-07T22:32:45.556Z,17.30
2018-05-07T22:35:12.593Z,17.30
2018-05-07T22:37:39.489Z,17.30
2018-05-07T22:40:06.376Z,17.30
2018-05-07T22:42:35.149Z,17.30
2018-05-07T22:45:03.664Z,17.30
2018-05-07T22:47:30.613Z,17.20
2018-05-07T22:49:58.220Z,17.20
2018-05-07T22:52:25.225Z,17.20
2018-05-07T22:54:52.276Z,17.20
2018-05-07T22:57:22.431Z,17.10
2018-05-07T22:59:49.393Z,17.10
2018-05-07T23:02:16.479Z,17.00
2018-05-07T23:04:46.048Z,17.10
2018-05-07T23:07:13.741Z,17.00
2018-05-07T23:09:41.445Z,17.00
2018-05-07T23:12:08.405Z,17.00
2018-05-07T23:14:35.548Z,17.00
2018-05-07T23:17:02.541Z,17.00
2018-05-07T23:19:30.466Z,17.00
2018-05-07T23:21:57.429Z,17.00
2018-05-07T23:24:25.057Z,17.00
2018-05-07T23:26:52.839Z,17.00
2018-05-07T23:29:19.740Z,17.00
2018-05-07T23:31:46.745Z,17.10
2018-05-07T23:34:14.969Z,17.10
2018-05-07T23:36:41.937Z,17.10
2018-05-07T23:39:08.825Z,17.00
2018-05-07T23:41:36.477Z,17.00
2018-05-07T23:44:03.401Z,17.00
2018-05-07T23:46:30.304Z,16.90
2018-05-07T23:48:57.295Z,16.90
2018-05-07T23:51:24.164Z,16.90
2018-05-07T23:53:51.044Z,16.90
2018-05-07T23:56:19.863Z,16.90
2018-05-07T23:58:46.781Z,16.90
